Atlanta, Nebraska
Current Conditions -  °F | °C
As of 9:55 AM on Friday 21 Nov 2014 (Local Time) from KHDE Reporting Station
Clear Clear  
Wind Chill: -4°   Ceiling: Unl
Heat Index: -1°   Visibility: 10mi
Dew Point: -5°   Wind: 6mph
Humidity: 72%   Direction: 180°S
Pressure: 30.07"   Gusts: NA
Location:  40.37°N, 99.47°W
Report Text: KHDE 211555Z AUTO 18005KT 10SM CLR M01/M05 A3007 RMK AO2 T10091053
Loading
Personal Weather Stations






























Interactive Weather Map New forecast layout! Learn more

10-Day Weather Forecast

Advertisements
Track Severe Weather on mobile